createdAt,value
2018-08-12T00:00:43.842Z,0.90
2018-08-12T00:03:17.136Z,1.00
2018-08-12T00:05:46.214Z,0.90
2018-08-12T00:08:18.997Z,1.17
2018-08-12T00:10:47.988Z,0.93
2018-08-12T00:13:19.777Z,0.85
2018-08-12T00:15:48.941Z,0.87
2018-08-12T00:18:21.767Z,1.00
2018-08-12T00:31:23.702Z,1.00
2018-08-12T00:33:52.694Z,0.90
2018-08-12T00:36:25.454Z,0.90
2018-08-12T00:38:55.466Z,0.90
2018-08-12T00:41:29.125Z,0.90
2018-08-12T00:44:01.357Z,0.82
2018-08-12T00:46:33.544Z,0.82
2018-08-12T00:49:03.520Z,0.90
2018-08-12T00:51:35.368Z,0.98
2018-08-12T00:54:04.839Z,0.80
2018-08-12T00:56:38.206Z,1.65
2018-08-12T00:59:07.152Z,1.07
2018-08-12T01:01:39.926Z,0.95
2018-08-12T01:04:09.045Z,0.75
2018-08-12T01:06:41.622Z,1.00
2018-08-12T01:09:13.316Z,1.00
2018-08-12T01:11:46.130Z,1.10
2018-08-12T01:14:15.196Z,0.90
2018-08-12T01:16:47.979Z,1.00
2018-08-12T01:19:17.097Z,1.40
2018-08-12T01:21:49.779Z,1.37
2018-08-12T01:24:18.707Z,1.00
2018-08-12T01:26:51.525Z,1.27
2018-08-12T01:29:21.462Z,1.10
2018-08-12T01:31:54.219Z,0.90
2018-08-12T01:34:23.278Z,0.98
2018-08-12T01:36:56.903Z,1.40
2018-08-12T01:39:25.878Z,1.23
2018-08-12T01:41:59.617Z,0.80
2018-08-12T01:44:32.543Z,1.40
2018-08-12T01:47:05.921Z,0.90
2018-08-12T01:49:34.927Z,1.07
2018-08-12T01:52:07.804Z,0.90
2018-08-12T01:54:37.549Z,0.98
2018-08-12T01:57:09.617Z,0.80
2018-08-12T01:59:39.433Z,1.00
2018-08-12T02:02:13.060Z,1.20
2018-08-12T02:04:42.020Z,1.02
2018-08-12T02:07:14.968Z,0.90
2018-08-12T02:09:44.540Z,1.00
2018-08-12T02:12:17.571Z,1.20
2018-08-12T02:14:47.313Z,1.30
2018-08-12T02:17:21.328Z,1.32
2018-08-12T02:19:50.266Z,1.32
2018-08-12T02:22:22.978Z,0.83
2018-08-12T02:24:51.890Z,1.02
2018-08-12T02:27:23.812Z,0.93
2018-08-12T02:29:53.497Z,1.10
2018-08-12T02:32:25.581Z,1.00
2018-08-12T02:34:54.610Z,1.07
2018-08-12T02:37:26.612Z,1.10
2018-08-12T02:39:55.636Z,1.17
2018-08-12T02:42:30.142Z,1.07
2018-08-12T02:45:02.186Z,1.50
2018-08-12T02:47:35.598Z,1.65
2018-08-12T02:50:05.288Z,1.50
2018-08-12T02:52:38.186Z,1.30
2018-08-12T02:55:08.469Z,1.40
2018-08-12T02:57:41.835Z,1.32
2018-08-12T03:00:12.655Z,1.30
2018-08-12T03:02:46.273Z,1.20
2018-08-12T03:05:15.498Z,0.87
2018-08-12T03:07:48.956Z,1.20
2018-08-12T03:10:18.126Z,1.40
2018-08-12T03:12:54.740Z,1.00
2018-08-12T03:15:24.467Z,1.00
2018-08-12T03:17:57.146Z,1.17
2018-08-12T03:20:26.025Z,1.20
2018-08-12T03:22:58.279Z,1.42
2018-08-12T03:25:28.230Z,1.05
2018-08-12T03:28:00.671Z,1.30
2018-08-12T03:30:30.617Z,1.17
2018-08-12T03:33:02.537Z,1.50
2018-08-12T03:35:31.562Z,1.30
2018-08-12T03:38:05.384Z,1.40
2018-08-12T03:40:34.458Z,1.20
2018-08-12T03:43:07.669Z,1.15
2018-08-12T03:45:41.014Z,1.30
2018-08-12T03:48:14.311Z,1.20
2018-08-12T03:50:43.852Z,1.22
2018-08-12T03:53:15.993Z,1.20
2018-08-12T03:55:44.973Z,1.40
2018-08-12T03:58:17.759Z,1.40
2018-08-12T04:00:46.756Z,1.52
2018-08-12T04:03:19.605Z,2.00
2018-08-12T04:05:49.225Z,1.50
2018-08-12T04:08:22.311Z,1.90
2018-08-12T04:10:51.283Z,1.90
2018-08-12T04:13:24.059Z,1.73
2018-08-12T04:15:53.130Z,1.57
2018-08-12T04:18:25.860Z,1.40
2018-08-12T04:20:56.076Z,1.60
2018-08-12T04:23:28.560Z,1.85
2018-08-12T04:25:58.186Z,1.90
2018-08-12T04:28:31.177Z,1.60
2018-08-12T04:31:00.363Z,2.50
2018-08-12T04:33:32.109Z,1.67
2018-08-12T04:36:01.233Z,1.55
2018-08-12T04:38:32.980Z,1.70
2018-08-12T04:41:01.954Z,1.35
2018-08-12T04:43:34.745Z,1.40
2018-08-12T04:46:07.886Z,1.20
2018-08-12T04:48:41.126Z,1.32
2018-08-12T04:51:11.990Z,1.22
2018-08-12T04:53:44.701Z,1.70
2018-08-12T04:56:13.721Z,1.37
2018-08-12T04:58:47.406Z,1.67
2018-08-12T05:01:16.352Z,1.25
2018-08-12T05:03:50.312Z,1.30
2018-08-12T05:06:19.979Z,1.32
2018-08-12T05:08:52.770Z,1.57
2018-08-12T05:11:21.803Z,1.70
2018-08-12T05:13:55.107Z,1.52
2018-08-12T05:16:24.028Z,1.35
2018-08-12T05:18:57.211Z,1.70
2018-08-12T05:21:26.053Z,1.10
2018-08-12T05:23:58.068Z,2.00
2018-08-12T05:26:27.225Z,1.50
2018-08-12T05:28:59.053Z,1.20
2018-08-12T05:31:28.117Z,1.25
2018-08-12T05:33:59.875Z,1.30
2018-08-12T05:36:28.563Z,1.25
2018-08-12T05:39:00.735Z,1.80
2018-08-12T05:41:29.461Z,1.37
2018-08-12T05:44:01.585Z,1.10
2018-08-12T05:46:34.516Z,2.50
2018-08-12T05:49:06.177Z,1.27
2018-08-12T05:51:35.005Z,1.75
2018-08-12T05:54:07.022Z,1.00
2018-08-12T05:56:35.785Z,1.65
2018-08-12T05:59:07.893Z,2.02
2018-08-12T06:01:36.594Z,0.78
2018-08-12T06:04:09.909Z,1.50
2018-08-12T06:06:39.774Z,1.50
2018-08-12T06:09:14.855Z,1.32
2018-08-12T06:11:44.342Z,2.00
2018-08-12T06:14:16.898Z,1.13
2018-08-12T06:16:46.117Z,1.02
2018-08-12T06:19:18.719Z,1.20
2018-08-12T06:21:47.867Z,0.80
2018-08-12T06:24:21.386Z,1.10
2018-08-12T06:26:50.602Z,1.25
2018-08-12T06:29:23.186Z,1.00
2018-08-12T06:31:52.380Z,1.67
2018-08-12T06:34:25.136Z,1.10
2018-08-12T06:36:54.330Z,1.00
2018-08-12T06:39:30.677Z,1.10
2018-08-12T06:41:59.781Z,1.40
2018-08-12T06:44:33.162Z,0.83
2018-08-12T06:47:06.184Z,1.20
2018-08-12T06:49:39.430Z,1.50
2018-08-12T06:52:10.588Z,0.75
2018-08-12T06:54:43.457Z,0.93
2018-08-12T06:57:13.394Z,0.90
2018-08-12T06:59:45.835Z,1.15
2018-08-12T07:02:15.788Z,1.10
2018-08-12T07:04:50.004Z,2.17
2018-08-12T07:07:31.448Z,1.15
2018-08-12T07:10:04.717Z,1.32
2018-08-12T07:12:35.086Z,1.57
2018-08-12T07:15:09.402Z,1.60
2018-08-12T07:17:40.386Z,2.90
2018-08-12T07:20:26.868Z,1.37
2018-08-12T07:23:04.395Z,0.50
2018-08-12T07:25:39.292Z,1.05
2018-08-12T07:28:09.658Z,1.20
2018-08-12T07:30:43.770Z,0.87
2018-08-12T07:33:16.856Z,1.05
2018-08-12T16:08:38.625Z,1.10
2018-08-12T16:11:07.600Z,0.50
2018-08-12T16:13:49.255Z,0.68
2018-08-12T16:16:18.637Z,0.90
2018-08-12T16:18:51.041Z,0.60
2018-08-12T16:21:20.023Z,0.50
2018-08-12T16:23:53.002Z,0.90
2018-08-12T16:26:22.543Z,2.12
2018-08-12T16:28:55.640Z,0.82
2018-08-12T16:31:24.584Z,1.37
2018-08-12T16:33:56.697Z,1.07
2018-08-12T16:36:25.503Z,0.80
2018-08-12T16:38:57.213Z,0.70
2018-08-12T16:41:26.130Z,0.80
2018-08-12T16:43:58.145Z,0.77
2018-08-12T16:46:27.104Z,0.50
2018-08-12T16:48:59.025Z,0.78
2018-08-12T16:51:28.162Z,0.87
2018-08-12T16:54:01.661Z,0.95
2018-08-12T16:56:30.667Z,0.90
2018-08-12T16:59:03.436Z,0.70
2018-08-12T17:01:32.656Z,0.57
2018-08-12T17:04:04.349Z,0.60
2018-08-12T17:06:33.029Z,0.80
2018-08-12T17:09:12.447Z,0.70
2018-08-12T17:11:41.412Z,0.90
2018-08-12T17:14:13.382Z,0.70
2018-08-12T17:16:42.299Z,0.75
2018-08-12T17:19:14.303Z,1.00
2018-08-12T17:21:43.149Z,0.50
2018-08-12T17:24:15.744Z,1.70
2018-08-12T17:26:45.111Z,0.90
2018-08-12T17:29:18.881Z,1.22
2018-08-12T17:31:48.584Z,1.15
2018-08-12T17:34:20.533Z,1.30
2018-08-12T17:36:49.780Z,1.10
2018-08-12T17:39:49.048Z,1.93
2018-08-12T17:42:29.676Z,2.00
2018-08-12T17:48:13.492Z,2.35
2018-08-12T17:51:04.858Z,2.98
2018-08-12T17:57:23.946Z,2.22
2018-08-12T18:07:15.367Z,1.12
2018-08-12T18:09:59.711Z,1.85
2018-08-12T18:12:28.927Z,1.00
2018-08-12T18:15:01.069Z,1.05
2018-08-12T18:17:30.087Z,1.60
2018-08-12T18:20:02.892Z,0.90
2018-08-12T18:22:31.881Z,1.30
2018-08-12T18:25:05.630Z,0.80
2018-08-12T18:27:34.820Z,1.25
2018-08-12T18:30:10.060Z,1.23
2018-08-12T18:32:39.939Z,1.25
2018-08-12T18:35:13.743Z,1.37
2018-08-12T18:37:43.050Z,1.20
2018-08-12T18:40:16.372Z,1.55
2018-08-12T18:42:45.207Z,1.30
2018-08-12T18:45:17.430Z,1.57
2018-08-12T18:47:46.850Z,1.60
2018-08-12T18:50:19.002Z,1.30
2018-08-12T18:52:48.450Z,1.20
2018-08-12T18:55:21.720Z,1.32
2018-08-12T18:57:50.790Z,1.55
2018-08-12T19:00:23.637Z,1.80
2018-08-12T19:02:52.766Z,1.50
2018-08-12T19:05:25.522Z,1.52
2018-08-12T19:07:56.908Z,1.30
2018-08-12T19:10:32.624Z,1.42
2018-08-12T19:13:02.347Z,1.50
2018-08-12T19:15:35.407Z,1.90
2018-08-12T19:18:05.577Z,1.80
2018-08-12T19:20:40.251Z,1.50
2018-08-12T19:23:09.729Z,1.30
2018-08-12T19:25:43.759Z,1.80
2018-08-12T19:28:14.108Z,1.33
2018-08-12T19:30:47.955Z,1.70
2018-08-12T19:33:17.514Z,1.42
2018-08-12T19:35:49.656Z,1.85
2018-08-12T19:38:20.107Z,1.75
2018-08-12T19:40:53.320Z,1.70
2018-08-12T19:43:22.649Z,2.00
2018-08-12T19:45:55.882Z,1.62
2018-08-12T19:48:25.312Z,2.10
2018-08-12T19:50:58.676Z,2.67
2018-08-12T19:53:28.252Z,3.70
2018-08-12T19:56:00.649Z,5.45
2018-08-12T19:58:30.079Z,7.30
2018-08-12T20:01:04.887Z,11.60
2018-08-12T20:03:34.104Z,12.28
2018-08-12T20:06:07.665Z,15.57
2018-08-12T20:08:38.556Z,15.93
2018-08-12T20:11:15.774Z,10.07
2018-08-12T20:13:44.903Z,12.47
2018-08-12T20:16:21.344Z,10.80
2018-08-12T20:18:50.534Z,6.37
2018-08-12T20:21:23.885Z,7.03
2018-08-12T20:23:53.311Z,5.75
2018-08-12T20:26:25.629Z,5.75
2018-08-12T20:28:55.222Z,5.17
2018-08-12T20:31:27.483Z,3.70
2018-08-12T20:33:56.387Z,2.80
2018-08-12T20:36:29.281Z,2.12
2018-08-12T20:38:58.092Z,3.20
2018-08-12T20:41:30.164Z,2.20
2018-08-12T20:43:59.521Z,2.02
2018-08-12T20:46:32.798Z,1.30
2018-08-12T20:49:01.940Z,1.40
2018-08-12T20:51:34.479Z,1.15
2018-08-12T20:54:03.894Z,1.23
2018-08-12T20:56:36.346Z,2.25
2018-08-12T20:59:06.383Z,1.32
2018-08-12T21:01:39.985Z,1.70
2018-08-12T21:04:09.083Z,1.52
2018-08-12T21:06:42.573Z,1.30
2018-08-12T21:09:12.791Z,1.20
2018-08-12T21:11:50.039Z,1.15
2018-08-12T21:14:19.611Z,1.10
2018-08-12T21:16:52.626Z,1.10
2018-08-12T21:19:22.378Z,0.70
2018-08-12T21:21:54.441Z,1.33
2018-08-12T21:24:23.652Z,1.50
2018-08-12T21:26:56.141Z,1.20
2018-08-12T21:29:25.284Z,1.53
2018-08-12T21:31:58.891Z,1.10
2018-08-12T21:34:28.023Z,1.15
2018-08-12T21:37:00.678Z,1.52
2018-08-12T21:39:29.903Z,2.02
2018-08-12T21:42:02.386Z,0.98
2018-08-12T21:44:31.785Z,1.30
2018-08-12T21:47:06.044Z,1.52
2018-08-12T21:49:36.261Z,1.57
2018-08-12T21:52:08.692Z,1.20
2018-08-12T21:54:38.134Z,1.20
2018-08-12T21:57:10.645Z,1.30
2018-08-12T21:59:39.847Z,1.47
2018-08-12T22:02:12.403Z,1.27
2018-08-12T22:04:41.478Z,1.42
2018-08-12T22:07:14.937Z,1.30
2018-08-12T22:09:44.037Z,1.27
2018-08-12T22:12:22.215Z,1.15
2018-08-12T22:14:52.009Z,1.20
2018-08-12T22:17:24.892Z,1.50
2018-08-12T22:19:54.051Z,1.00
2018-08-12T22:22:26.648Z,1.02
2018-08-12T22:24:55.713Z,1.00
2018-08-12T22:27:28.441Z,1.10
2018-08-12T22:29:57.687Z,1.33
2018-08-12T22:32:30.167Z,1.40
2018-08-12T22:34:59.297Z,0.90
2018-08-12T22:37:32.894Z,1.32
2018-08-12T22:40:02.621Z,1.52
2018-08-12T22:42:35.684Z,1.50
2018-08-12T22:45:05.434Z,1.37
2018-08-12T22:47:37.334Z,1.02
2018-08-12T22:50:07.897Z,1.05
2018-08-12T22:52:41.034Z,1.30
2018-08-12T22:55:10.079Z,1.20
2018-08-12T22:57:42.739Z,1.20
2018-08-12T23:00:15.915Z,1.47
2018-08-12T23:02:48.295Z,1.40
2018-08-12T23:05:17.810Z,1.42
2018-08-12T23:07:51.801Z,1.30
2018-08-12T23:10:21.109Z,1.57
2018-08-12T23:12:59.005Z,1.32
2018-08-12T23:16:38.293Z,1.40
2018-08-12T23:19:11.521Z,1.20
2018-08-12T23:21:40.731Z,1.40
2018-08-12T23:24:13.214Z,1.22
2018-08-12T23:26:42.337Z,1.10
2018-08-12T23:29:15.902Z,1.30
2018-08-12T23:31:44.976Z,1.13
2018-08-12T23:34:17.760Z,1.20
2018-08-12T23:36:46.858Z,1.70
2018-08-12T23:39:19.498Z,1.45
2018-08-12T23:41:48.672Z,1.40
2018-08-12T23:44:21.263Z,2.22
2018-08-12T23:46:50.205Z,1.70
2018-08-12T23:49:24.472Z,1.70
2018-08-12T23:51:53.871Z,1.50
2018-08-12T23:54:26.663Z,1.20
2018-08-12T23:56:56.597Z,1.30
2018-08-12T23:59:28.470Z,1.42
